Bluffton, IN

05:31 PM EDT ye 29 August, 2016 (GMT -0400)
Rigby Timbers | | Change Station

Elev 856 ft 40.78 °N, 85.17 °W | Updated 8 minutes ago

Partly Cloudy
Parte Nubizita
85.8 °F
Feels Like 93 °F
N
5.3
Vento Variema Vento from Esto

Hodie
High -- | Low -- °F
--% Chance of Precip.
Yesterday
High -- | Low -- °F
Precip. -- in
Presuro 30.19 in
Videbleso 10.0 milii
Clouds Few 3900 ft
Indexo di Varmeso 93 °F
Rosifopunto 73 °F
Humideso 65%
Rainfall 0.00 in
Snow Depth Not available.
7:05 AM 8:16 PM
Waning Crescent, 7% visible
METAR KFWA 292054Z 13003KT 10SM FEW039 28/19 A3020 RMK AO2 SLP221 T02830194 58024
Presuro 30.19 in
Videbleso 10.0 milii
Clouds Few 3900 ft
Indexo di Varmeso 93 °F
Rosifopunto 73 °F
Humideso 65%
Rainfall 0.00 in
Snow Depth Not available.
7:05 AM 8:16 PM
Waning Crescent, 7% visible
METAR KFWA 292054Z 13003KT 10SM FEW039 28/19 A3020 RMK AO2 SLP221 T02830194 58024

10-Day Weather Forecast

Almanac

Astronomy

Aug. 29, 2016 Rise Set
Actual Time
Civil Twilight
Nautical Twilight
Astronomical Twilight
Moon
Length Of Visible Light
Length of Day
Tomorrow will be .
, % of the Moon is Illuminated

Today's Extremes

State Highs State Lows

Community

WunderPhotos

Upload Photos

1,935,679 photos uploaded!

WunderBlog® & News

Nearby

Air Quality

  Air Quality AQ Index Pollutant
Not available.

Snow Depth

Station Depth Elevation

Earthquake Activity

City Distance Mag. Time & Date
Minimum magnitude displayed is 2.5.

Coastal Water Temperatures

Loko Temperaturo

Stations

Nearby Weather Stations

Station Location Temp Ventokoldeso Rosifopunto Humideso Vento Precip. Elev Aktualigita Type
                   

Watches & Warnings

There are currently no watches in effect.